Time;durP1;ratioP1;P1;durP2;ratioP2;P2;SDS_P1;SDS_P2;PMS_P1;PMS_P2;Temp;Humidity;BMP_temperature;BMP_pressure;BME280_temperature;BME280_humidity;BME280_pressure;Samples;Min_cycle;Max_cycle;Signal;HPM_P1;HPM_P2
2022/10/22 00:01:53;;;;;;;20.70;15.48;;;;;;;10.53;79.26;100006.07;2177666;81;28175;-58
2022/10/22 00:04:55;;;;;;;22.48;16.23;;;;;;;10.49;79.12;100007.21;2177878;81;29282;-64
2022/10/22 00:07:57;;;;;;;22.85;16.45;;;;;;;10.44;79.15;100008.77;2178089;81;32276;-62
2022/10/22 00:10:59;;;;;;;20.50;15.65;;;;;;;10.41;79.13;100010.76;2152185;82;33013;-58
2022/10/22 00:14:00;;;;;;;21.52;16.07;;;;;;;10.36;79.09;100015.00;2152429;82;29709;-58
2022/10/22 00:17:01;;;;;;;26.33;16.73;;;;;;;10.31;79.05;100011.23;2154561;82;27741;-64
2022/10/22 00:20:05;;;;;;;20.25;15.72;;;;;;;10.27;78.91;100007.44;2159909;82;29828;-62
2022/10/22 00:23:06;;;;;;;18.95;14.90;;;;;;;10.19;78.87;100002.03;2159470;82;32061;-58
2022/10/22 00:26:08;;;;;;;21.80;16.02;;;;;;;10.15;79.01;100014.33;2159896;82;34184;-58
2022/10/22 00:29:10;;;;;;;25.92;16.52;;;;;;;10.12;79.17;100016.67;2159476;82;30554;-59
2022/10/22 00:32:11;;;;;;;20.82;16.05;;;;;;;10.12;79.38;100009.98;2159908;82;27707;-60
2022/10/22 00:35:13;;;;;;;22.13;16.65;;;;;;;10.13;79.47;100001.01;2159619;82;28730;-58
2022/10/22 00:38:15;;;;;;;21.97;16.35;;;;;;;10.14;79.54;100001.89;2159583;82;32240;-58
2022/10/22 00:41:16;;;;;;;20.62;16.42;;;;;;;10.13;79.56;99997.00;2159882;82;33311;-58
2022/10/22 00:45:04;;;;;;;20.88;16.35;;;;;;;10.16;79.67;99990.63;2159499;82;30537;-58
2022/10/22 00:48:12;;;;;;;24.87;16.60;;;;;;;10.17;79.74;99973.14;2159440;82;27681;-58
2022/10/22 00:51:13;;;;;;;20.45;16.12;;;;;;;10.16;79.67;99974.09;2159717;82;28657;-58
2022/10/22 00:54:15;;;;;;;22.17;15.98;;;;;;;10.17;79.81;99967.78;2132618;82;32146;-58
2022/10/22 00:57:17;;;;;;;22.95;17.02;;;;;;;10.21;79.88;99963.61;2159446;82;34211;-58
2022/10/22 01:00:19;;;;;;;23.27;17.20;;;;;;;10.24;79.94;99964.80;2159884;82;29130;-58
2022/10/22 01:03:21;;;;;;;26.60;17.15;;;;;;;10.26;79.94;99960.22;2161472;82;27645;-60
2022/10/22 01:06:33;;;;;;;21.35;16.10;;;;;;;10.27;79.86;99950.76;2170822;82;29134;-58
2022/10/22 01:09:58;;;;;;;22.48;16.40;;;;;;;10.26;79.48;99943.67;2171015;82;31059;-58
2022/10/22 01:13:26;;;;;;;22.42;16.57;;;;;;;10.26;79.40;99944.16;2171252;82;34123;-58
2022/10/22 01:16:47;;;;;;;24.75;16.17;;;;;;;10.28;79.70;99940.90;2167051;81;29333;-58
2022/10/22 01:20:12;;;;;;;23.22;16.17;;;;;;;10.31;79.78;99943.42;2151341;82;27724;-58
2022/10/22 01:23:28;;;;;;;23.97;16.73;;;;;;;10.32;79.79;99947.83;2152192;82;28664;-58
2022/10/22 01:27:16;;;;;;;21.65;15.43;;;;;;;10.37;79.89;99952.92;2151507;81;31125;-58
2022/10/22 01:30:22;;;;;;;25.05;17.15;;;;;;;10.38;79.85;99958.67;2045672;87;33478;-59
2022/10/22 01:33:24;;;;;;;24.98;16.48;;;;;;;10.39;79.89;99984.08;2045818;87;29375;-59
2022/10/22 01:36:29;;;;;;;22.50;16.15;;;;;;;10.38;79.64;100002.85;2072248;85;27751;-58
2022/10/22 01:39:30;;;;;;;23.70;14.75;;;;;;;10.40;79.87;99978.23;2072394;85;28653;-58
2022/10/22 01:42:32;;;;;;;23.47;16.77;;;;;;;10.42;79.87;99957.14;2010849;88;31033;-58
2022/10/22 01:45:50;;;;;;;26.35;15.90;;;;;;;10.44;79.81;99960.57;2072015;85;33182;-59
2022/10/22 01:49:19;;;;;;;23.47;15.13;;;;;;;10.46;79.80;99965.86;2062971;85;29688;-58
2022/10/22 01:53:11;;;;;;;20.27;14.85;;;;;;;10.45;79.65;99948.91;2065293;86;27708;-58
2022/10/22 01:56:36;;;;;;;18.85;14.87;;;;;;;10.46;79.73;99951.13;2065146;86;28774;-59
2022/10/22 01:59:51;;;;;;;23.33;16.27;;;;;;;10.45;79.82;99939.54;2065592;86;32348;-58
2022/10/22 02:03:09;;;;;;;22.77;14.53;;;;;;;10.45;79.84;99945.38;2064219;86;33416;-58
2022/10/22 02:06:15;;;;;;;18.55;13.80;;;;;;;10.42;79.72;99942.87;2109534;81;29730;-59
2022/10/22 02:09:19;;;;;;;21.87;15.48;;;;;;;10.39;79.68;99942.58;2182125;81;27652;-57
2022/10/22 02:12:21;;;;;;;21.02;14.05;;;;;;;10.34;79.55;99939.23;2181858;81;29485;-57
2022/10/22 02:15:26;;;;;;;19.17;14.40;;;;;;;10.28;79.39;99934.20;2181871;81;31031;-58
2022/10/22 02:18:30;;;;;;;20.35;14.33;;;;;;;10.21;79.33;99928.81;2188948;81;33611;-58
2022/10/22 02:21:31;;;;;;;20.17;13.50;;;;;;;10.14;79.35;99925.61;2189492;80;30324;-59
2022/10/22 02:24:33;;;;;;;20.15;13.75;;;;;;;10.08;79.39;99913.88;2189933;80;28227;-58
2022/10/22 02:27:45;;;;;;;14.85;12.50;;;;;;;10.00;79.34;99904.47;2190290;80;28805;-57
2022/10/22 02:30:54;;;;;;;18.95;14.07;;;;;;;9.94;79.28;99910.14;2189797;80;31192;-57
2022/10/22 02:33:59;;;;;;;17.98;14.23;;;;;;;9.86;79.33;99918.58;2160661;82;33802;-58
2022/10/22 02:37:01;;;;;;;23.07;14.03;;;;;;;9.80;79.31;99927.40;2189914;80;30198;-57
2022/10/22 02:40:04;;;;;;;17.30;13.25;;;;;;;9.76;79.48;99934.73;2189798;80;27626;-58
2022/10/22 02:43:06;;;;;;;22.20;14.53;;;;;;;9.72;79.52;99935.83;2189794;80;29457;-58
2022/10/22 02:46:09;;;;;;;19.87;14.20;;;;;;;9.68;79.62;99936.44;2188469;80;31052;-58
2022/10/22 02:49:11;;;;;;;18.32;13.98;;;;;;;9.65;79.56;99943.31;2186037;81;32968;-58
2022/10/22 02:52:12;;;;;;;21.70;14.25;;;;;;;9.62;79.61;99947.47;2186067;81;29329;-58
2022/10/22 02:55:14;;;;;;;20.92;13.90;;;;;;;9.60;79.66;99958.72;2185689;81;27782;-58
2022/10/22 02:58:15;;;;;;;19.45;14.00;;;;;;;9.58;79.71;99952.58;2185591;81;30751;-58
2022/10/22 03:01:17;;;;;;;18.87;13.95;;;;;;;9.56;79.77;99942.42;2185931;81;31462;-58
2022/10/22 03:04:18;;;;;;;22.52;14.20;;;;;;;9.53;79.71;99930.55;2176721;81;34101;-58
2022/10/22 03:07:20;;;;;;;18.62;13.15;;;;;;;9.49;79.63;99936.53;2163857;82;29715;-58
2022/10/22 03:10:21;;;;;;;16.97;12.93;;;;;;;9.45;79.55;99936.77;2163573;82;27672;-58
2022/10/22 03:13:22;;;;;;;18.82;14.18;;;;;;;9.40;79.51;99944.55;2163111;82;29983;-65
2022/10/22 03:16:24;;;;;;;18.80;13.80;;;;;;;9.34;79.49;99945.33;2166750;81;31056;-59
2022/10/22 03:19:25;;;;;;;21.23;13.55;;;;;;;9.28;79.52;99947.84;2174120;81;33312;-66
2022/10/22 03:22:29;;;;;;;19.75;14.05;;;;;;;9.22;79.54;99942.34;2151485;82;30543;-60
2022/10/22 03:25:33;;;;;;;20.20;14.18;;;;;;;9.18;79.64;99940.75;2174259;81;27657;-67
2022/10/22 03:28:35;;;;;;;22.82;16.27;;;;;;;9.14;79.71;99931.64;2151937;82;28643;-67
2022/10/22 03:31:37;;;;;;;20.02;14.93;;;;;;;9.10;79.78;99947.81;2174098;81;31398;-66
2022/10/22 03:34:38;;;;;;;19.80;14.18;;;;;;;9.08;79.84;99944.84;2151556;82;33622;-63
2022/10/22 03:37:39;;;;;;;21.25;14.90;;;;;;;9.05;79.92;99940.48;2174146;81;29731;-66
2022/10/22 03:40:42;;;;;;;23.83;16.10;;;;;;;9.04;80.08;99938.75;2151783;82;27719;-58
2022/10/22 03:43:48;;;;;;;22.90;15.65;;;;;;;9.02;80.11;99937.95;2151921;82;29075;-58
2022/10/22 03:46:48;;;;;;;21.60;14.83;;;;;;;9.00;80.22;99945.21;2150778;82;32407;-59
2022/10/22 03:49:51;;;;;;;24.95;16.93;;;;;;;9.00;80.37;99939.87;2151285;82;34212;-66
2022/10/22 03:52:52;;;;;;;18.42;14.35;;;;;;;9.01;80.51;99941.60;2151320;82;29316;-59
2022/10/22 03:55:54;;;;;;;25.05;15.03;;;;;;;9.00;80.44;99940.32;2151977;82;27668;-58
2022/10/22 03:58:57;;;;;;;24.32;17.05;;;;;;;9.01;80.60;99946.95;2152144;82;28665;-59
2022/10/22 04:01:58;;;;;;;27.52;17.95;;;;;;;9.03;80.67;99948.19;2152024;82;31021;-65
2022/10/22 04:04:59;;;;;;;24.75;16.00;;;;;;;9.05;80.80;99947.65;2147820;82;33345;-58
2022/10/22 04:08:01;;;;;;;26.97;17.73;;;;;;;9.07;80.90;99946.63;2142084;83;29374;-58
2022/10/22 04:11:02;;;;;;;22.95;16.77;;;;;;;9.11;80.99;99937.97;2142513;83;27649;-58
2022/10/22 04:14:04;;;;;;;27.75;16.82;;;;;;;9.12;80.93;99943.72;2141966;83;29118;-59
2022/10/22 04:17:06;;;;;;;25.02;18.17;;;;;;;9.16;81.06;99938.63;2138390;83;30997;-58
2022/10/22 04:20:09;;;;;;;26.00;17.95;;;;;;;9.19;81.20;99943.82;2172535;81;32967;-58
2022/10/22 04:23:11;;;;;;;24.50;17.67;;;;;;;9.24;81.33;99937.78;2173071;81;29375;-58
2022/10/22 04:26:12;;;;;;;24.82;17.35;;;;;;;9.29;81.42;99934.88;2173172;81;27687;-58
2022/10/22 04:29:13;;;;;;;29.42;19.77;;;;;;;9.36;81.52;99928.75;2173380;81;29037;-58
2022/10/22 04:32:15;;;;;;;28.10;18.57;;;;;;;9.42;81.62;99923.09;2179623;81;31847;-58
2022/10/22 04:35:16;;;;;;;31.35;19.73;;;;;;;9.48;81.65;99921.43;2151550;81;34377;-58
2022/10/22 04:38:18;;;;;;;26.55;18.62;;;;;;;9.53;81.54;99919.39;2141707;83;30217;-57
2022/10/22 04:41:24;;;;;;;29.12;19.60;;;;;;;9.58;81.63;99918.69;2151521;81;27719;-59
2022/10/22 04:44:25;;;;;;;27.65;18.05;;;;;;;9.64;81.69;99919.30;2141897;83;29512;-64
2022/10/22 04:47:26;;;;;;;27.07;17.85;;;;;;;9.69;81.77;99921.27;2146975;81;31376;-64
2022/10/22 04:50:28;;;;;;;28.07;18.07;;;;;;;9.72;81.67;99923.79;2144518;83;34142;-66
2022/10/22 04:53:30;;;;;;;24.90;17.25;;;;;;;9.74;81.68;99927.25;2115478;84;29695;-66
2022/10/22 04:56:32;;;;;;;27.15;16.52;;;;;;;9.77;81.66;99928.89;2144401;83;27596;-63
2022/10/22 04:59:33;;;;;;;21.57;15.70;;;;;;;9.80;81.64;99944.78;2097182;84;29052;-59
2022/10/22 05:02:34;;;;;;;23.87;16.32;;;;;;;9.83;81.71;99955.34;2173105;81;31429;-58
2022/10/22 05:05:36;;;;;;;24.37;17.02;;;;;;;9.87;81.76;99963.11;2142128;82;33348;-62
2022/10/22 05:08:39;;;;;;;27.93;17.62;;;;;;;9.88;81.70;99960.83;2155440;82;29520;-60
2022/10/22 05:11:45;;;;;;;23.45;17.45;;;;;;;9.92;81.79;99950.83;2184637;81;27654;-58
2022/10/22 05:14:45;;;;;;;20.97;16.60;;;;;;;9.96;81.78;99951.52;2184715;81;28650;-58
2022/10/22 05:17:47;;;;;;;24.57;16.93;;;;;;;10.00;81.83;99951.76;2190309;81;31458;-59
2022/10/22 05:20:48;;;;;;;23.87;16.60;;;;;;;10.04;81.89;99942.14;2191970;80;33385;-64
2022/10/22 05:23:50;;;;;;;27.77;18.90;;;;;;;10.08;81.84;99948.67;2186976;80;30279;-60
2022/10/22 05:26:54;;;;;;;109.42;48.78;;;;;;;10.12;81.83;99949.76;2184464;81;27716;-66
2022/10/22 05:29:56;;;;;;;71.57;37.78;;;;;;;10.15;81.74;99965.66;2184720;81;32292;-66
2022/10/22 05:33:00;;;;;;;46.98;26.15;;;;;;;10.15;81.74;99965.66;2184624;81;31432;-66
2022/10/22 05:36:04;;;;;;;40.63;25.62;;;;;;;10.16;81.54;99974.57;2155501;82;34077;-66
2022/10/22 05:39:06;;;;;;;42.83;27.98;;;;;;;10.14;81.51;99974.64;2184848;81;32211;-66
2022/10/22 05:42:09;;;;;;;38.35;24.50;;;;;;;10.17;81.56;99969.61;2184794;81;27607;-65
2022/10/22 05:45:10;;;;;;;39.03;27.42;;;;;;;10.16;81.42;99979.44;2184806;81;29013;-60
2022/10/22 05:48:12;;;;;;;36.42;25.70;;;;;;;10.18;81.48;99986.03;2184406;81;31051;-68
2022/10/22 05:51:13;;;;;;;37.38;25.20;;;;;;;10.19;81.50;100002.03;2155939;82;33287;-66
2022/10/22 05:54:19;;;;;;;34.85;23.73;;;;;;;10.23;81.62;100016.11;2189861;81;29295;-57
2022/10/22 05:57:20;;;;;;;31.70;23.60;;;;;;;10.26;81.65;100029.34;2159927;82;27694;-57
2022/10/22 06:00:21;;;;;;;38.28;24.12;;;;;;;10.28;81.66;100026.12;2159330;82;28444;-58
2022/10/22 06:03:23;;;;;;;35.25;23.75;;;;;;;10.32;81.67;100031.71;2160051;82;31353;-65
2022/10/22 06:06:46;;;;;;;32.73;23.57;;;;;;;10.36;81.71;100027.50;2112972;83;33862;-64
2022/10/22 06:09:49;;;;;;;38.28;23.90;;;;;;;10.41;81.70;100016.12;2141657;83;30652;-60
2022/10/22 06:12:50;;;;;;;32.78;24.95;;;;;;;10.42;81.56;100010.70;2119252;84;27710;-65
2022/10/22 06:15:52;;;;;;;33.20;24.05;;;;;;;10.45;81.63;100018.54;2140292;83;28744;-66
2022/10/22 06:18:53;;;;;;;35.52;23.15;;;;;;;10.52;81.70;100004.83;2172883;81;32227;-57
2022/10/22 06:21:55;;;;;;;33.13;22.67;;;;;;;10.62;81.82;100008.72;2172938;81;33029;-66
2022/10/22 06:24:56;;;;;;;35.20;22.80;;;;;;;10.68;81.61;100012.88;2144555;83;30499;-67
2022/10/22 06:27:57;;;;;;;29.32;22.93;;;;;;;10.74;81.64;100008.08;2144342;82;27668;-65
2022/10/22 06:31:00;;;;;;;36.42;23.98;;;;;;;10.80;81.55;100001.51;2115281;84;28653;-65
2022/10/22 06:34:07;;;;;;;30.97;23.20;;;;;;;10.85;81.54;100004.77;2170717;81;27867;-66
2022/10/22 06:37:09;;;;;;;41.30;25.88;;;;;;;10.92;81.55;100003.98;2115221;84;32955;-67
2022/10/22 06:40:12;;;;;;;36.88;25.97;;;;;;;10.96;81.51;100001.99;2144429;83;29723;-67
2022/10/22 06:43:14;;;;;;;45.17;28.38;;;;;;;10.98;81.49;100000.09;2115205;84;27700;-67
2022/10/22 06:46:19;;;;;;;34.95;23.25;;;;;;;11.01;81.44;100003.91;2146655;82;29866;-67
2022/10/22 06:49:20;;;;;;;32.63;22.82;;;;;;;11.03;81.38;100008.26;2151549;82;31871;-66
2022/10/22 06:52:22;;;;;;;37.88;20.95;;;;;;;11.02;81.22;100009.67;2151483;82;33334;-58
2022/10/22 06:55:23;;;;;;;32.75;21.70;;;;;;;11.01;81.15;100022.67;2151556;82;29732;-65
2022/10/22 06:58:24;;;;;;;30.50;20.27;;;;;;;11.01;81.20;100015.52;2141625;83;27737;-67
2022/10/22 07:01:30;;;;;;;28.00;20.57;;;;;;;11.01;81.15;100014.18;2142275;83;29045;-65
2022/10/22 07:04:32;;;;;;;32.10;20.75;;;;;;;11.03;81.27;100020.78;2141948;83;31836;-68
2022/10/22 07:07:33;;;;;;;29.50;20.90;;;;;;;11.06;81.40;100025.52;2157771;82;32961;-69
2022/10/22 07:10:34;;;;;;;32.70;19.55;;;;;;;11.10;81.46;100023.52;2189496;80;29772;-67
2022/10/22 07:13:36;;;;;;;29.57;20.92;;;;;;;11.13;81.34;100027.37;2190021;80;27563;-66
2022/10/22 07:16:37;;;;;;;31.00;22.05;;;;;;;11.16;81.46;100026.33;2139328;82;29041;-66
2022/10/22 07:19:39;;;;;;;35.25;26.73;;;;;;;11.19;81.55;100022.98;2148275;82;31431;-61
2022/10/22 07:22:40;;;;;;;39.27;25.75;;;;;;;11.23;81.54;100022.36;2148452;82;32982;-67
2022/10/22 07:25:42;;;;;;;33.90;23.38;;;;;;;11.27;81.52;100023.03;2148611;82;29705;-65
2022/10/22 07:28:43;;;;;;;37.28;26.35;;;;;;;11.30;81.52;100015.67;2103844;84;27666;-68
2022/10/22 07:31:45;;;;;;;43.42;27.60;;;;;;;11.36;81.48;100023.84;2144602;83;28776;-68
2022/10/22 07:34:46;;;;;;;40.90;25.35;;;;;;;11.42;81.70;100014.11;2103636;84;31420;-68
2022/10/22 07:37:48;;;;;;;36.25;24.80;;;;;;;11.48;81.53;100018.25;2144264;83;32996;-65
2022/10/22 07:40:49;;;;;;;39.30;24.67;;;;;;;11.55;81.56;100020.48;2103755;84;29707;-67
2022/10/22 07:43:51;;;;;;;42.48;25.40;;;;;;;11.62;81.34;100032.21;2119823;84;27661;-68
2022/10/22 07:46:52;;;;;;;38.17;24.02;;;;;;;11.68;81.37;100035.86;2105749;83;28755;-59
2022/10/22 07:49:54;;;;;;;42.10;28.85;;;;;;;11.76;81.47;100035.41;2189333;80;31872;-69
2022/10/22 07:52:55;;;;;;;74.22;39.78;;;;;;;11.82;81.28;100027.00;2189748;81;33342;-70
2022/10/22 07:56:03;;;;;;;61.95;32.48;;;;;;;11.88;81.40;100036.05;2189893;80;29680;-69
2022/10/22 07:59:07;;;;;;;49.13;28.98;;;;;;;11.95;81.25;100032.52;2160611;82;27698;-68
2022/10/22 08:02:10;;;;;;;42.03;27.47;;;;;;;11.99;81.30;100037.63;2190091;80;28724;-69
2022/10/22 08:05:12;;;;;;;43.15;27.93;;;;;;;12.09;81.42;100037.06;2189670;80;31028;-58
2022/10/22 08:08:15;;;;;;;49.05;29.15;;;;;;;12.16;81.51;100036.59;2189403;80;33341;-58
2022/10/22 08:11:16;;;;;;;41.85;29.37;;;;;;;12.25;81.41;100041.89;2189172;80;30184;-67
2022/10/22 08:14:18;;;;;;;45.92;29.35;;;;;;;12.33;81.35;100046.80;2189478;80;27626;-58
2022/10/22 08:17:19;;;;;;;44.90;29.40;;;;;;;12.41;81.29;100045.02;2151857;80;28415;-67
2022/10/22 08:20:20;;;;;;;43.08;27.98;;;;;;;12.49;81.40;100042.70;2103575;84;31406;-67
2022/10/22 08:23:22;;;;;;;46.33;28.20;;;;;;;12.57;81.35;100045.79;2143899;83;33760;-68
2022/10/22 08:26:23;;;;;;;38.92;26.02;;;;;;;12.65;81.20;100038.59;2103672;84;30466;-68
2022/10/22 08:29:25;;;;;;;36.65;24.80;;;;;;;12.70;81.05;100034.27;2144498;83;27711;-68
2022/10/22 08:32:27;;;;;;;40.23;24.82;;;;;;;12.78;81.10;100048.07;2119151;84;29697;-58
2022/10/22 08:35:28;;;;;;;35.10;24.30;;;;;;;12.86;81.08;100047.58;2082085;85;32239;-68
2022/10/22 08:38:30;;;;;;;35.73;22.77;;;;;;;12.91;80.85;100046.33;2144484;82;33535;-68
2022/10/22 08:41:37;;;;;;;32.05;23.20;;;;;;;12.99;80.81;100055.74;2144630;82;29706;-67
2022/10/22 08:45:01;;;;;;;33.20;21.50;;;;;;;13.04;80.82;100064.39;2103547;84;27663;-69
2022/10/22 08:48:20;;;;;;;32.03;21.35;;;;;;;13.01;80.75;100055.17;2087974;85;28705;-58
2022/10/22 08:51:29;;;;;;;27.67;19.25;;;;;;;13.20;80.89;100087.12;2088360;85;31398;-67
2022/10/22 08:54:51;;;;;;;26.60;19.12;;;;;;;13.30;80.89;100088.27;2088328;85;33299;-58
2022/10/22 08:58:04;;;;;;;29.87;19.10;;;;;;;13.38;80.98;100079.20;2115282;83;30675;-68
2022/10/22 09:01:15;;;;;;;28.75;17.32;;;;;;;13.50;80.96;100076.23;2088287;85;27983;-59
2022/10/22 09:04:36;;;;;;;24.75;17.00;;;;;;;13.60;80.91;100071.11;2115566;84;29520;-59
2022/10/22 09:07:42;;;;;;;27.35;17.35;;;;;;;13.71;80.87;100064.14;2110300;82;31725;-68
2022/10/22 09:10:48;;;;;;;24.63;17.75;;;;;;;13.83;80.89;100064.66;2048236;86;33891;-58
2022/10/22 09:13:52;;;;;;;28.98;18.50;;;;;;;13.92;80.78;100057.79;2108244;83;29315;-59
2022/10/22 09:17:32;;;;;;;27.85;19.20;;;;;;;13.88;80.59;100046.38;2131912;83;27697;-58
2022/10/22 09:20:51;;;;;;;24.80;17.45;;;;;;;14.08;80.42;100067.05;2137098;83;30014;-59
2022/10/22 09:23:58;;;;;;;24.35;16.52;;;;;;;14.16;80.33;100070.56;2137232;83;31024;-58
2022/10/22 09:27:00;;;;;;;24.10;16.97;;;;;;;14.23;80.40;100077.28;2099727;84;32977;-59
2022/10/22 09:30:04;;;;;;;23.52;17.20;;;;;;;14.27;80.26;100074.26;2114702;83;30445;-58
2022/10/22 09:33:11;;;;;;;25.52;18.12;;;;;;;14.34;80.33;100076.04;2099658;84;27681;-59
2022/10/22 09:36:18;;;;;;;22.90;16.85;;;;;;;14.41;80.25;100073.78;2137537;83;29607;-58
2022/10/22 09:39:33;;;;;;;26.93;18.45;;;;;;;14.47;80.18;100085.49;2099705;84;31053;-59
2022/10/22 09:42:34;;;;;;;;;;;;;;;14.53;80.07;100089.59;2140435;81;33057;-57
2022/10/22 09:45:36;;;;;;;29.23;18.32;;;;;;;14.56;79.92;100087.53;2117620;83;29603;-58
2022/10/22 09:48:44;;;;;;;23.15;18.15;;;;;;;14.57;80.02;100081.64;2138564;82;27706;-58
2022/10/22 09:51:58;;;;;;;29.92;18.42;;;;;;;14.63;80.03;100087.12;2137587;83;28646;-58
2022/10/22 09:55:04;;;;;;;26.10;19.02;;;;;;;14.72;79.55;100081.09;2137585;83;31838;-59
2022/10/22 09:58:13;;;;;;;25.75;19.30;;;;;;;14.72;79.55;100081.09;2135942;83;32998;-57
2022/10/22 10:01:22;;;;;;;29.23;22.32;;;;;;;14.67;79.91;100059.83;2137472;83;29965;-57
2022/10/22 10:04:24;;;;;;;26.77;20.97;;;;;;;14.85;79.97;100079.75;2137172;83;27828;-57
2022/10/22 10:07:32;;;;;;;36.53;22.30;;;;;;;14.92;80.00;100082.86;2159838;81;28674;-57
2022/10/22 10:10:51;;;;;;;50.58;33.75;;;;;;;14.96;79.98;100080.33;2184549;81;31919;-57
2022/10/22 10:14:15;;;;;;;45.70;30.27;;;;;;;15.00;79.82;100081.34;2184167;81;33038;-57
2022/10/22 10:18:05;;;;;;;58.98;41.55;;;;;;;15.04;79.85;100086.91;2191067;81;30842;-57
2022/10/22 10:21:39;;;;;;;66.42;51.53;;;;;;;15.02;79.50;100098.28;2192592;80;27693;-56
2022/10/22 10:25:15;;;;;;;64.03;48.42;;;;;;;15.01;79.52;100101.95;2192279;80;29070;-57
2022/10/22 10:28:38;;;;;;;47.00;31.85;;;;;;;15.02;79.63;100093.36;2159626;82;31453;-57
2022/10/22 10:32:16;;;;;;;44.13;29.30;;;;;;;15.01;79.47;100084.89;2151556;82;32740;-58
2022/10/22 10:35:33;;;;;;;39.80;25.75;;;;;;;14.99;79.60;100082.31;2136317;83;30514;-58
2022/10/22 10:39:10;;;;;;;41.13;25.32;;;;;;;14.96;79.75;100096.52;2140259;82;27907;-59
2022/10/22 10:42:22;;;;;;;33.33;22.65;;;;;;;14.94;79.93;100090.37;2196681;81;29572;-57
2022/10/22 10:45:35;;;;;;;38.13;23.50;;;;;;;14.90;79.99;100097.79;2191834;81;31075;-58
2022/10/22 10:48:47;;;;;;;37.73;24.70;;;;;;;14.85;80.00;100088.69;2190719;81;33324;-60
2022/10/22 10:52:19;;;;;;;41.63;23.00;;;;;;;14.82;80.15;100093.44;2190915;81;29336;-58
2022/10/22 10:55:53;;;;;;;45.20;25.70;;;;;;;14.78;80.28;100086.06;2198904;81;27679;-59
2022/10/22 10:59:11;;;;;;;45.00;25.65;;;;;;;14.74;80.44;100092.14;2118466;84;28658;-60
2022/10/22 11:02:44;;;;;;;36.38;24.00;;;;;;;14.72;80.52;100094.11;2117864;84;31501;-57
2022/10/22 11:06:02;;;;;;;34.65;23.55;;;;;;;14.67;80.59;100093.53;2146161;82;33036;-59
2022/10/22 11:09:18;;;;;;;38.40;23.83;;;;;;;14.65;80.77;100086.50;2138722;82;29425;-58
2022/10/22 11:12:27;;;;;;;39.95;24.80;;;;;;;14.68;81.07;100086.32;2129620;83;27805;-61
2022/10/22 11:15:35;;;;;;;37.42;24.60;;;;;;;14.74;81.30;100080.00;2129849;83;28637;-60
2022/10/22 11:18:56;;;;;;;42.62;26.73;;;;;;;14.80;81.50;100084.13;2105694;83;31890;-58
2022/10/22 11:22:12;;;;;;;48.58;29.27;;;;;;;14.92;81.71;100089.61;2113061;83;33078;-63
2022/10/22 11:25:25;;;;;;;45.85;31.45;;;;;;;15.02;81.93;100074.01;2079994;85;30038;-58
2022/10/22 11:28:40;;;;;;;53.68;30.52;;;;;;;15.17;82.09;100066.62;2083597;85;27626;-59
2022/10/22 11:31:43;;;;;;;46.00;27.35;;;;;;;15.29;82.09;100066.22;2083666;85;28643;-59
2022/10/22 11:34:49;;;;;;;41.98;28.35;;;;;;;15.40;82.05;100059.15;2122646;82;31022;-58
2022/10/22 11:37:54;;;;;;;44.27;28.55;;;;;;;15.49;81.83;100063.38;2157810;82;34194;-58
2022/10/22 11:41:07;;;;;;;50.75;30.95;;;;;;;15.60;82.12;100062.59;2157767;82;30610;-58
2022/10/22 11:44:13;;;;;;;54.77;30.02;;;;;;;15.75;82.19;100059.71;2135644;82;27927;-59
2022/10/22 11:47:20;;;;;;;50.30;28.42;;;;;;;15.89;82.05;100062.26;2157736;82;28086;-58
2022/10/22 11:50:29;;;;;;;41.63;25.72;;;;;;;15.97;81.87;100068.42;2154105;82;31007;-58
2022/10/22 11:53:37;;;;;;;46.73;25.97;;;;;;;16.02;81.62;100069.45;2148705;82;33423;-59
2022/10/22 11:56:40;;;;;;;45.17;27.05;;;;;;;16.03;81.46;100066.63;2175956;81;30140;-58
2022/10/22 11:59:51;;;;;;;37.45;23.07;;;;;;;16.03;81.19;100067.13;2167179;82;27695;-58
2022/10/22 12:03:16;;;;;;;31.40;20.75;;;;;;;16.02;81.13;100065.40;2165469;81;29510;-58
2022/10/22 12:06:26;;;;;;;35.35;21.87;;;;;;;16.01;80.95;100065.88;2149857;82;31088;-57
2022/10/22 12:09:31;;;;;;;29.32;21.20;;;;;;;16.00;80.98;100070.05;2120256;83;34199;-57
2022/10/22 12:12:34;;;;;;;;;;;;;;;16.00;80.87;100068.70;2145095;83;29563;-57
2022/10/22 12:15:48;;;;;;;31.93;19.85;;;;;;;16.03;81.08;100067.13;2124548;83;27678;-58
2022/10/22 12:19:13;;;;;;;31.90;20.88;;;;;;;16.04;81.11;100067.50;2114665;83;28681;-57
2022/10/22 12:22:19;;;;;;;33.48;21.97;;;;;;;16.10;81.12;100060.25;2101757;84;35242;-59
2022/10/22 12:25:27;;;;;;;34.23;20.92;;;;;;;16.19;81.22;100055.51;2095943;84;33018;-58
2022/10/22 12:28:28;;;;;;;27.75;18.62;;;;;;;16.31;81.20;100051.47;2105873;84;30110;-57
2022/10/22 12:31:36;;;;;;;29.25;17.87;;;;;;;16.35;80.91;100058.37;2106054;84;27702;-60
2022/10/22 12:34:46;;;;;;;24.65;16.60;;;;;;;16.35;80.82;100053.81;2096314;84;29483;-58
2022/10/22 12:37:54;;;;;;;23.85;14.07;;;;;;;16.33;80.46;100062.52;2105894;84;31096;-58
2022/10/22 12:40:57;;;;;;;17.35;11.43;;;;;;;16.25;80.41;100059.58;2105793;84;34644;-61
2022/10/22 12:44:04;;;;;;;12.47;8.93;;;;;;;16.19;80.14;100058.21;2074478;84;29386;-58
2022/10/22 12:47:07;;;;;;;9.43;6.20;;;;;;;16.14;80.21;100056.34;2088221;85;27687;-60
2022/10/22 12:50:17;;;;;;;9.00;6.17;;;;;;;16.07;80.17;100047.84;2071923;85;28659;-58
2022/10/22 12:53:28;;;;;;;9.15;5.87;;;;;;;16.02;80.17;100050.54;2072269;85;31053;-58
2022/10/22 12:56:32;;;;;;;12.25;5.80;;;;;;;15.95;80.26;100054.20;2074782;84;32976;-58
2022/10/22 12:59:36;;;;;;;7.83;5.43;;;;;;;15.90;80.33;100056.38;2105004;84;30127;-58
2022/10/22 13:02:37;;;;;;;8.75;4.75;;;;;;;15.88;80.62;100059.22;2142704;82;27586;-58
2022/10/22 13:05:39;;;;;;;6.95;5.33;;;;;;;15.83;80.44;100055.95;2142730;82;28642;-58
2022/10/22 13:08:40;;;;;;;7.17;5.35;;;;;;;15.78;80.43;100063.06;2116070;83;31171;-58
2022/10/22 13:12:00;;;;;;;11.95;6.40;;;;;;;15.73;80.46;100050.39;2144287;82;34253;-58
2022/10/22 13:15:28;;;;;;;9.23;6.95;;;;;;;15.71;80.65;100053.69;2144690;82;30207;-57
2022/10/22 13:18:32;;;;;;;11.68;6.72;;;;;;;15.67;80.76;100049.99;2144549;82;27576;-57
2022/10/22 13:21:37;;;;;;;17.27;9.98;;;;;;;15.64;80.87;100054.64;2144506;82;28701;-58
2022/10/22 13:24:45;;;;;;;11.48;6.78;;;;;;;15.62;80.99;100050.34;2144252;82;31098;-58
2022/10/22 13:28:00;;;;;;;9.05;5.72;;;;;;;15.61;81.08;100056.72;2142905;82;33022;-58
2022/10/22 13:31:09;;;;;;;;;;;;;;;15.59;81.13;100053.27;2147232;82;30460;-57
2022/10/22 13:34:14;;;;;;;9.08;4.58;;;;;;;15.56;81.18;100056.19;2099527;83;27702;-57
2022/10/22 13:37:16;;;;;;;4.97;3.77;;;;;;;15.54;81.29;100056.79;2144517;82;28779;-57
2022/10/22 13:40:21;;;;;;;7.45;4.75;;;;;;;15.49;81.14;100058.48;2144640;82;31378;-58
2022/10/22 13:43:24;;;;;;;5.20;4.15;;;;;;;15.48;81.29;100066.21;2144607;82;32796;-57
2022/10/22 13:46:27;;;;;;;7.50;4.92;;;;;;;15.45;81.33;100067.31;2144072;83;30212;-58
2022/10/22 13:49:29;;;;;;;9.10;5.15;;;;;;;15.44;81.34;100068.28;2144730;82;27586;-58
2022/10/22 13:52:39;;;;;;;8.90;5.35;;;;;;;15.43;81.43;100073.31;2145080;82;30080;-58
2022/10/22 13:55:41;;;;;;;7.47;5.22;;;;;;;15.41;81.40;100074.37;2151449;82;30954;-58
2022/10/22 13:58:44;;;;;;;7.92;5.50;;;;;;;15.40;81.52;100079.40;2151370;82;33313;-57
2022/10/22 14:01:45;;;;;;;13.25;6.95;;;;;;;15.38;81.47;100077.33;2151490;82;29332;-58
2022/10/22 14:04:47;;;;;;;11.55;7.08;;;;;;;15.37;81.47;100076.95;2151360;82;27652;-58
2022/10/22 14:07:50;;;;;;;12.05;8.75;;;;;;;15.36;81.51;100084.67;2152945;81;29031;-58
2022/10/22 14:10:53;;;;;;;17.10;14.85;;;;;;;15.34;81.53;100084.30;2159794;82;31106;-65
2022/10/22 14:13:54;;;;;;;13.22;11.75;;;;;;;15.33;81.57;100092.02;2159503;82;33585;-58
2022/10/22 14:16:56;;;;;;;18.85;15.08;;;;;;;15.29;81.48;100090.50;2120784;83;29341;-58
2022/10/22 14:19:58;;;;;;;27.58;18.35;;;;;;;15.28;81.58;100090.63;2159953;82;27704;-61